Aérodrome :
LOGIN :

S'inscrire | Disclaimer

   EN    FR    IT 

 










Légende :    VFR   VFR Marginal   IFR   IFR Intensif   IFR Très Intensif
Visi : 
Plafond : 
>= 8 km
>= 3000ft
5 à 8 km
1000 à 3000 ft
1500m à 5 km
500 à 1000 ft
800 à 1500m
200 à 500 ft
< 800m
< 200 ft
Symboles :   Orages  Brouillard  Fortes neiges  Fortes précipitations  Vent > 20 kt
SIGMETs :   Divers  Orages  Givrage  Turbulence  Onde Orograph.  Cendres Volcan.







- Altitude de l'aérodrome : 33 ft
- Code IATA : MHZ


EGUN - RAF Mildenhall

DERNIER METAR :
  • 210756Z AUTO 23009KT 9999 CLR 18/15 A3009 RMK AO2 SLP192 T01810152 $

METARs EXPIRÉS :
  • 210656Z 23006KT 9999 SCT060 15/15 A3008 RMK AO2A SLP189 T01530153 RVRNO VISNO RWY11 $
  • 210556Z 23006KT 9999 SCT060 14/14 A3006 RMK AO2A SLP182 T01410141 10151 20115 52018 .

TAF TAF EGUN
Valide du 21 à 04h jusqu'au 22 à 10h UTC


210400Z 2104/2210 27009KT 9999 SCT040 QNH3002INS
BECMG 2109/2110 25012KT 9999 BKN050 QNH3010INS
BECMG 2119/2120 23009KT 9999 SCT050 BKN150 QNH3009INS
BECMG 2206/2207 23015G20KT 9999 BKN020 QNH3011INS TX22/2116Z TN12/2104Z
Pas de NOTAMs connus pour ce terrain.



MET'MAP, la Météo Aéronautique d'un coup d'oeil ! - Copyright ORBIFLY Décembre 2007 - Disclaimer

ORBIFLY MET'MAP TEAM :

Programmation & Développement : Alexandra Zaïnal
Conception & Développement : Baudouin d'Aumeries
Co-Programmation & Développement : Marc-Olivier Méhu
Soutien technique & logistique : Manuel Goepfert

Contact : metmap@orbifly.com




SOURCES & CREDITS :

   NOAA